sensor_id;sensor_type;location;lat;lon;timestamp;pressure;altitude;pressure_sealevel;temperature;humidity
16690;BME280;8458;52.220;9.884;2023-02-18T00:00:11;101139.44;;;7.46;73.67
16690;BME280;8458;52.220;9.884;2023-02-18T00:02:41;101137.75;;;7.45;73.38
16690;BME280;8458;52.220;9.884;2023-02-18T00:05:08;101139.91;;;7.43;73.98
16690;BME280;8458;52.220;9.884;2023-02-18T00:07:35;101140.38;;;7.40;73.73
16690;BME280;8458;52.220;9.884;2023-02-18T00:10:03;101131.03;;;7.41;73.80
16690;BME280;8458;52.220;9.884;2023-02-18T00:12:30;101126.34;;;7.41;74.07
16690;BME280;8458;52.220;9.884;2023-02-18T00:14:58;101127.56;;;7.45;73.97
16690;BME280;8458;52.220;9.884;2023-02-18T00:17:25;101126.72;;;7.45;74.07
16690;BME280;8458;52.220;9.884;2023-02-18T00:19:51;101140.03;;;7.48;73.63
16690;BME280;8458;52.220;9.884;2023-02-18T00:22:18;101133.09;;;7.45;74.13
16690;BME280;8458;52.220;9.884;2023-02-18T00:24:44;101126.25;;;7.48;73.58
16690;BME280;8458;52.220;9.884;2023-02-18T00:27:11;101129.00;;;7.48;73.80
16690;BME280;8458;52.220;9.884;2023-02-18T00:29:37;101127.56;;;7.45;73.89
16690;BME280;8458;52.220;9.884;2023-02-18T00:32:05;101137.75;;;7.45;74.02
16690;BME280;8458;52.220;9.884;2023-02-18T00:34:31;101125.50;;;7.41;74.60
16690;BME280;8458;52.220;9.884;2023-02-18T00:36:58;101123.81;;;7.40;74.69
16690;BME280;8458;52.220;9.884;2023-02-18T00:39:24;101129.47;;;7.45;73.65
16690;BME280;8458;52.220;9.884;2023-02-18T00:41:51;101130.09;;;7.47;73.80
16690;BME280;8458;52.220;9.884;2023-02-18T00:44:17;101132.84;;;7.47;73.88
16690;BME280;8458;52.220;9.884;2023-02-18T00:46:44;101133.00;;;7.52;74.13
16690;BME280;8458;52.220;9.884;2023-02-18T00:49:13;101138.50;;;7.52;73.69
16690;BME280;8458;52.220;9.884;2023-02-18T00:51:40;101128.22;;;7.59;73.58
16690;BME280;8458;52.220;9.884;2023-02-18T00:54:07;101131.47;;;7.56;73.57
16690;BME280;8458;52.220;9.884;2023-02-18T00:56:33;101132.28;;;7.57;73.83
16690;BME280;8458;52.220;9.884;2023-02-18T00:59:00;101140.56;;;7.57;74.23
16690;BME280;8458;52.220;9.884;2023-02-18T01:01:26;101137.81;;;7.57;74.05
16690;BME280;8458;52.220;9.884;2023-02-18T01:03:53;101136.13;;;7.56;73.97
16690;BME280;8458;52.220;9.884;2023-02-18T01:06:21;101136.75;;;7.58;73.85
16690;BME280;8458;52.220;9.884;2023-02-18T01:08:48;101136.28;;;7.61;73.61
16690;BME280;8458;52.220;9.884;2023-02-18T01:11:15;101136.50;;;7.59;73.49
16690;BME280;8458;52.220;9.884;2023-02-18T01:13:41;101134.94;;;7.63;73.85
16690;BME280;8458;52.220;9.884;2023-02-18T01:16:08;101142.16;;;7.64;73.89
16690;BME280;8458;52.220;9.884;2023-02-18T01:18:35;101134.00;;;7.69;73.46
16690;BME280;8458;52.220;9.884;2023-02-18T01:21:02;101126.94;;;7.74;73.84
16690;BME280;8458;52.220;9.884;2023-02-18T01:23:30;101135.22;;;7.74;73.93
16690;BME280;8458;52.220;9.884;2023-02-18T01:25:57;101140.53;;;7.75;73.96
16690;BME280;8458;52.220;9.884;2023-02-18T01:28:24;101139.91;;;7.73;74.04
16690;BME280;8458;52.220;9.884;2023-02-18T01:30:51;101132.22;;;7.75;73.99
16690;BME280;8458;52.220;9.884;2023-02-18T01:33:18;101128.78;;;7.80;73.84
16690;BME280;8458;52.220;9.884;2023-02-18T01:35:44;101126.13;;;7.85;74.09
16690;BME280;8458;52.220;9.884;2023-02-18T01:38:11;101133.81;;;7.83;74.48
16690;BME280;8458;52.220;9.884;2023-02-18T01:40:45;101138.75;;;7.81;74.90
16690;BME280;8458;52.220;9.884;2023-02-18T01:43:13;101132.13;;;7.82;74.69
16690;BME280;8458;52.220;9.884;2023-02-18T01:45:49;101130.00;;;7.84;75.05
16690;BME280;8458;52.220;9.884;2023-02-18T01:48:17;101130.00;;;7.84;75.25
16690;BME280;8458;52.220;9.884;2023-02-18T01:50:50;101114.25;;;7.84;75.54
16690;BME280;8458;52.220;9.884;2023-02-18T01:53:22;101127.94;;;7.79;75.97
16690;BME280;8458;52.220;9.884;2023-02-18T01:55:53;101117.72;;;7.80;76.12
16690;BME280;8458;52.220;9.884;2023-02-18T01:58:20;101125.53;;;7.83;76.02
16690;BME280;8458;52.220;9.884;2023-02-18T02:00:47;101122.03;;;7.76;76.57
16690;BME280;8458;52.220;9.884;2023-02-18T02:03:13;101118.19;;;7.77;76.99
16690;BME280;8458;52.220;9.884;2023-02-18T02:05:40;101111.84;;;7.76;77.00
16690;BME280;8458;52.220;9.884;2023-02-18T02:08:06;101108.84;;;7.78;77.66
16690;BME280;8458;52.220;9.884;2023-02-18T02:10:57;101112.69;;;7.77;77.86
16690;BME280;8458;52.220;9.884;2023-02-18T02:13:36;101104.16;;;7.78;78.32
16690;BME280;8458;52.220;9.884;2023-02-18T02:16:10;101096.84;;;7.84;78.33
16690;BME280;8458;52.220;9.884;2023-02-18T02:18:48;101097.34;;;7.81;78.92
16690;BME280;8458;52.220;9.884;2023-02-18T02:24:36;101078.13;;;7.86;79.66
16690;BME280;8458;52.220;9.884;2023-02-18T02:27:20;101081.47;;;7.88;80.26
16690;BME280;8458;52.220;9.884;2023-02-18T02:30:17;101079.81;;;7.87;81.25
16690;BME280;8458;52.220;9.884;2023-02-18T02:33:18;101075.25;;;7.81;82.36
16690;BME280;8458;52.220;9.884;2023-02-18T02:35:54;101089.75;;;7.88;82.61
16690;BME280;8458;52.220;9.884;2023-02-18T02:38:29;101096.50;;;7.92;83.38
16690;BME280;8458;52.220;9.884;2023-02-18T02:41:04;101087.34;;;7.92;83.89
16690;BME280;8458;52.220;9.884;2023-02-18T02:43:38;101081.94;;;7.85;84.51
16690;BME280;8458;52.220;9.884;2023-02-18T02:46:12;101091.09;;;7.85;85.52
16690;BME280;8458;52.220;9.884;2023-02-18T02:48:47;101081.94;;;7.85;85.72
16690;BME280;8458;52.220;9.884;2023-02-18T02:51:19;101087.00;;;7.88;85.91
16690;BME280;8458;52.220;9.884;2023-02-18T02:53:50;101081.84;;;7.80;86.61
16690;BME280;8458;52.220;9.884;2023-02-18T02:56:18;101072.00;;;7.84;86.60
16690;BME280;8458;52.220;9.884;2023-02-18T02:58:47;101067.31;;;7.84;87.02
16690;BME280;8458;52.220;9.884;2023-02-18T03:01:27;101065.97;;;7.75;87.59
16690;BME280;8458;52.220;9.884;2023-02-18T03:04:30;101062.50;;;7.80;87.73
16690;BME280;8458;52.220;9.884;2023-02-18T03:07:12;101056.25;;;7.72;88.78
16690;BME280;8458;52.220;9.884;2023-02-18T03:09:50;101050.88;;;7.78;89.06
16690;BME280;8458;52.220;9.884;2023-02-18T03:12:26;101056.25;;;7.72;90.21
16690;BME280;8458;52.220;9.884;2023-02-18T03:14:58;101057.00;;;7.80;90.78
16690;BME280;8458;52.220;9.884;2023-02-18T03:17:31;101034.44;;;7.83;91.04
16690;BME280;8458;52.220;9.884;2023-02-18T03:20:06;101041.63;;;7.84;92.08
16690;BME280;8458;52.220;9.884;2023-02-18T03:22:38;101046.06;;;7.85;92.62
16690;BME280;8458;52.220;9.884;2023-02-18T03:25:08;101048.81;;;7.85;93.47
16690;BME280;8458;52.220;9.884;2023-02-18T03:27:39;101040.69;;;7.90;94.17
16690;BME280;8458;52.220;9.884;2023-02-18T03:30:12;101035.16;;;7.90;94.62
16690;BME280;8458;52.220;9.884;2023-02-18T03:32:39;101027.59;;;7.97;95.12
16690;BME280;8458;52.220;9.884;2023-02-18T03:35:11;101015.00;;;8.01;95.29
16690;BME280;8458;52.220;9.884;2023-02-18T03:37:44;101006.94;;;8.00;96.27
16690;BME280;8458;52.220;9.884;2023-02-18T03:40:14;101001.78;;;8.03;96.72
16690;BME280;8458;52.220;9.884;2023-02-18T03:42:42;100999.13;;;8.08;97.29
16690;BME280;8458;52.220;9.884;2023-02-18T03:45:09;100996.97;;;8.11;97.52
16690;BME280;8458;52.220;9.884;2023-02-18T03:47:36;100985.94;;;8.11;98.35
16690;BME280;8458;52.220;9.884;2023-02-18T03:50:04;100983.03;;;8.05;99.06
16690;BME280;8458;52.220;9.884;2023-02-18T03:52:30;100997.94;;;8.04;99.55
16690;BME280;8458;52.220;9.884;2023-02-18T03:54:58;100993.97;;;8.00;100.00
16690;BME280;8458;52.220;9.884;2023-02-18T03:57:25;100991.44;;;7.99;100.00
16690;BME280;8458;52.220;9.884;2023-02-18T03:59:51;100994.06;;;8.05;100.00
16690;BME280;8458;52.220;9.884;2023-02-18T04:02:17;100988.22;;;8.14;100.00
16690;BME280;8458;52.220;9.884;2023-02-18T04:04:44;100978.81;;;8.15;99.66
16690;BME280;8458;52.220;9.884;2023-02-18T04:07:10;100982.19;;;8.17;99.25
16690;BME280;8458;52.220;9.884;2023-02-18T04:09:37;100974.75;;;8.17;98.98
16690;BME280;8458;52.220;9.884;2023-02-18T04:12:05;100973.44;;;8.20;98.44
16690;BME280;8458;52.220;9.884;2023-02-18T04:14:32;100970.53;;;8.15;99.10
16690;BME280;8458;52.220;9.884;2023-02-18T04:16:58;100976.53;;;8.12;99.32
16690;BME280;8458;52.220;9.884;2023-02-18T04:19:25;100974.41;;;8.14;100.00
16690;BME280;8458;52.220;9.884;2023-02-18T04:21:52;100968.75;;;8.20;100.00
16690;BME280;8458;52.220;9.884;2023-02-18T04:24:18;100968.75;;;8.20;100.00
16690;BME280;8458;52.220;9.884;2023-02-18T04:26:47;100969.94;;;8.13;100.00
16690;BME280;8458;52.220;9.884;2023-02-18T04:29:15;100970.06;;;8.18;100.00
16690;BME280;8458;52.220;9.884;2023-02-18T04:31:41;100976.06;;;8.15;100.00
16690;BME280;8458;52.220;9.884;2023-02-18T04:34:08;100973.53;;;8.13;100.00
16690;BME280;8458;52.220;9.884;2023-02-18T04:36:34;100968.88;;;8.14;100.00
16690;BME280;8458;52.220;9.884;2023-02-18T04:39:01;100964.81;;;8.04;100.00
16690;BME280;8458;52.220;9.884;2023-02-18T04:41:27;100962.16;;;8.10;100.00
16690;BME280;8458;52.220;9.884;2023-02-18T04:43:54;100962.63;;;8.06;100.00
16690;BME280;8458;52.220;9.884;2023-02-18T04:46:21;100951.81;;;8.05;100.00
16690;BME280;8458;52.220;9.884;2023-02-18T04:48:48;100948.72;;;8.01;100.00
16690;BME280;8458;52.220;9.884;2023-02-18T04:51:15;100944.13;;;8.07;100.00
16690;BME280;8458;52.220;9.884;2023-02-18T04:53:41;100940.03;;;8.10;100.00
16690;BME280;8458;52.220;9.884;2023-02-18T04:56:08;100947.25;;;8.11;100.00
16690;BME280;8458;52.220;9.884;2023-02-18T04:58:34;100935.13;;;8.12;100.00
16690;BME280;8458;52.220;9.884;2023-02-18T05:01:01;100926.59;;;8.13;100.00
16690;BME280;8458;52.220;9.884;2023-02-18T05:03:29;100924.78;;;8.19;100.00
16690;BME280;8458;52.220;9.884;2023-02-18T05:05:56;100920.22;;;8.24;100.00
16690;BME280;8458;52.220;9.884;2023-02-18T05:08:23;100921.88;;;8.25;100.00
16690;BME280;8458;52.220;9.884;2023-02-18T05:10:49;100922.38;;;8.22;100.00
16690;BME280;8458;52.220;9.884;2023-02-18T05:13:16;100912.84;;;8.30;100.00
16690;BME280;8458;52.220;9.884;2023-02-18T05:15:42;100909.59;;;8.33;100.00
16690;BME280;8458;52.220;9.884;2023-02-18T05:18:09;100911.28;;;8.34;100.00
16690;BME280;8458;52.220;9.884;2023-02-18T05:20:37;100905.19;;;8.32;100.00
16690;BME280;8458;52.220;9.884;2023-02-18T05:23:03;100907.69;;;8.34;100.00
16690;BME280;8458;52.220;9.884;2023-02-18T05:25:30;100900.81;;;8.36;100.00
16690;BME280;8458;52.220;9.884;2023-02-18T05:27:56;100899.75;;;8.37;100.00
16690;BME280;8458;52.220;9.884;2023-02-18T05:30:23;100893.03;;;8.45;100.00
16690;BME280;8458;52.220;9.884;2023-02-18T05:32:49;100892.78;;;8.47;100.00
16690;BME280;8458;52.220;9.884;2023-02-18T05:35:16;100884.75;;;8.45;100.00
16690;BME280;8458;52.220;9.884;2023-02-18T05:37:44;100881.59;;;8.41;100.00
16690;BME280;8458;52.220;9.884;2023-02-18T05:40:11;100878.84;;;8.41;100.00
16690;BME280;8458;52.220;9.884;2023-02-18T05:42:37;100879.91;;;8.40;100.00
16690;BME280;8458;52.220;9.884;2023-02-18T05:45:05;100876.22;;;8.47;100.00
16690;BME280;8458;52.220;9.884;2023-02-18T05:47:31;100865.84;;;8.42;100.00
16690;BME280;8458;52.220;9.884;2023-02-18T05:49:58;100866.34;;;8.39;100.00
16690;BME280;8458;52.220;9.884;2023-02-18T05:52:24;100853.97;;;8.41;100.00
16690;BME280;8458;52.220;9.884;2023-02-18T05:54:52;100857.81;;;8.40;100.00
16690;BME280;8458;52.220;9.884;2023-02-18T05:57:19;100845.22;;;8.45;100.00
16690;BME280;8458;52.220;9.884;2023-02-18T05:59:45;100850.50;;;8.46;100.00
16690;BME280;8458;52.220;9.884;2023-02-18T06:02:12;100832.56;;;8.49;100.00
16690;BME280;8458;52.220;9.884;2023-02-18T06:04:38;100832.44;;;8.55;100.00
16690;BME280;8458;52.220;9.884;2023-02-18T06:07:05;100822.78;;;8.58;100.00
16690;BME280;8458;52.220;9.884;2023-02-18T06:09:31;100825.56;;;8.58;100.00
16690;BME280;8458;52.220;9.884;2023-02-18T06:11:59;100819.53;;;8.61;100.00
16690;BME280;8458;52.220;9.884;2023-02-18T06:14:26;100819.19;;;8.57;100.00
16690;BME280;8458;52.220;9.884;2023-02-18T06:16:52;100811.72;;;8.58;100.00
16690;BME280;8458;52.220;9.884;2023-02-18T06:19:19;100820.03;;;8.58;100.00
16690;BME280;8458;52.220;9.884;2023-02-18T06:21:45;100811.72;;;8.58;100.00
16690;BME280;8458;52.220;9.884;2023-02-18T06:24:12;100806.31;;;8.63;100.00
16690;BME280;8458;52.220;9.884;2023-02-18T06:26:38;100803.56;;;8.63;100.00
16690;BME280;8458;52.220;9.884;2023-02-18T06:29:06;100802.69;;;8.63;100.00
16690;BME280;8458;52.220;9.884;2023-02-18T06:31:32;100797.41;;;8.61;100.00
16690;BME280;8458;52.220;9.884;2023-02-18T06:33:59;100791.88;;;8.61;100.00
16690;BME280;8458;52.220;9.884;2023-02-18T06:36:25;100780.25;;;8.59;100.00
16690;BME280;8458;52.220;9.884;2023-02-18T06:38:52;100776.31;;;8.55;100.00
16690;BME280;8458;52.220;9.884;2023-02-18T06:41:21;100778.00;;;8.56;100.00
16690;BME280;8458;52.220;9.884;2023-02-18T06:43:48;100763.59;;;8.54;100.00
16690;BME280;8458;52.220;9.884;2023-02-18T06:46:16;100756.72;;;8.56;100.00
16690;BME280;8458;52.220;9.884;2023-02-18T06:48:42;100752.03;;;8.57;100.00
16690;BME280;8458;52.220;9.884;2023-02-18T06:51:09;100743.13;;;8.55;100.00
16690;BME280;8458;52.220;9.884;2023-02-18T06:53:35;100732.09;;;8.55;100.00
16690;BME280;8458;52.220;9.884;2023-02-18T06:56:02;100729.31;;;8.55;100.00
16690;BME280;8458;52.220;9.884;2023-02-18T06:58:28;100718.25;;;8.55;100.00
16690;BME280;8458;52.220;9.884;2023-02-18T07:00:55;100719.38;;;8.54;100.00
16690;BME280;8458;52.220;9.884;2023-02-18T07:03:22;100719.53;;;8.64;100.00
16690;BME280;8458;52.220;9.884;2023-02-18T07:05:49;100712.34;;;8.63;100.00
16690;BME280;8458;52.220;9.884;2023-02-18T07:08:16;100711.84;;;8.66;100.00
16690;BME280;8458;52.220;9.884;2023-02-18T07:10:42;100704.13;;;8.68;100.00
16690;BME280;8458;52.220;9.884;2023-02-18T07:13:09;100696.41;;;8.70;100.00
16690;BME280;8458;52.220;9.884;2023-02-18T07:15:36;100698.66;;;8.73;100.00
16690;BME280;8458;52.220;9.884;2023-02-18T07:18:02;100687.34;;;8.75;100.00
16690;BME280;8458;52.220;9.884;2023-02-18T07:20:30;100687.69;;;8.78;100.00
16690;BME280;8458;52.220;9.884;2023-02-18T07:22:57;100678.81;;;8.76;100.00
16690;BME280;8458;52.220;9.884;2023-02-18T07:25:24;100660.88;;;8.79;100.00
16690;BME280;8458;52.220;9.884;2023-02-18T07:27:51;100660.63;;;8.81;100.00
16690;BME280;8458;52.220;9.884;2023-02-18T07:30:18;100657.28;;;8.78;100.00
16690;BME280;8458;52.220;9.884;2023-02-18T07:32:45;100640.75;;;8.84;100.00
16690;BME280;8458;52.220;9.884;2023-02-18T07:35:14;100639.19;;;8.88;100.00
16690;BME280;8458;52.220;9.884;2023-02-18T07:37:44;100637.41;;;8.99;100.00
16690;BME280;8458;52.220;9.884;2023-02-18T07:40:13;100636.53;;;8.98;100.00
16690;BME280;8458;52.220;9.884;2023-02-18T07:42:39;100629.66;;;9.01;100.00
16690;BME280;8458;52.220;9.884;2023-02-18T07:45:07;100642.72;;;9.05;100.00
16690;BME280;8458;52.220;9.884;2023-02-18T07:47:34;100638.88;;;9.06;100.00
16690;BME280;8458;52.220;9.884;2023-02-18T07:50:00;100641.72;;;9.11;100.00
16690;BME280;8458;52.220;9.884;2023-02-18T07:52:27;100633.97;;;9.13;100.00
16690;BME280;8458;52.220;9.884;2023-02-18T07:54:55;100628.69;;;9.12;100.00
16690;BME280;8458;52.220;9.884;2023-02-18T07:57:21;100636.19;;;9.11;100.00
16690;BME280;8458;52.220;9.884;2023-02-18T07:59:48;100619.06;;;9.14;100.00
16690;BME280;8458;52.220;9.884;2023-02-18T08:02:17;100626.09;;;9.22;100.00
16690;BME280;8458;52.220;9.884;2023-02-18T08:04:44;100621.38;;;9.23;100.00
16690;BME280;8458;52.220;9.884;2023-02-18T08:07:12;100612.56;;;9.26;100.00
16690;BME280;8458;52.220;9.884;2023-02-18T08:09:38;100608.75;;;9.32;100.00
16690;BME280;8458;52.220;9.884;2023-02-18T08:12:06;100604.91;;;9.33;100.00
16690;BME280;8458;52.220;9.884;2023-02-18T08:14:33;100591.69;;;9.40;100.00
16690;BME280;8458;52.220;9.884;2023-02-18T08:16:59;100598.91;;;9.41;100.00
16690;BME280;8458;52.220;9.884;2023-02-18T08:19:26;100598.44;;;9.49;100.00
16690;BME280;8458;52.220;9.884;2023-02-18T08:21:52;100592.97;;;9.55;100.00
16690;BME280;8458;52.220;9.884;2023-02-18T08:24:19;100597.72;;;9.59;100.00
16690;BME280;8458;52.220;9.884;2023-02-18T08:26:45;100590.88;;;9.67;100.00
16690;BME280;8458;52.220;9.884;2023-02-18T08:29:13;100587.25;;;9.66;100.00
16690;BME280;8458;52.220;9.884;2023-02-18T08:31:39;100579.03;;;9.72;100.00
16690;BME280;8458;52.220;9.884;2023-02-18T08:34:06;100579.34;;;9.75;100.00
16690;BME280;8458;52.220;9.884;2023-02-18T08:36:34;100581.00;;;9.76;100.00
16690;BME280;8458;52.220;9.884;2023-02-18T08:39:01;100586.03;;;9.79;100.00
16690;BME280;8458;52.220;9.884;2023-02-18T08:41:27;100573.28;;;9.78;100.00
16690;BME280;8458;52.220;9.884;2023-02-18T08:43:54;100574.09;;;9.79;100.00
16690;BME280;8458;52.220;9.884;2023-02-18T08:46:21;100576.06;;;9.83;100.00
16690;BME280;8458;52.220;9.884;2023-02-18T08:48:48;100565.25;;;9.82;100.00
16690;BME280;8458;52.220;9.884;2023-02-18T08:51:16;100561.97;;;9.85;100.00
16690;BME280;8458;52.220;9.884;2023-02-18T08:53:43;100565.84;;;9.84;100.00
16690;BME280;8458;52.220;9.884;2023-02-18T08:56:11;100558.13;;;9.86;100.00
16690;BME280;8458;52.220;9.884;2023-02-18T08:58:39;100557.28;;;9.85;100.00
16690;BME280;8458;52.220;9.884;2023-02-18T09:01:07;100563.94;;;9.90;100.00
16690;BME280;8458;52.220;9.884;2023-02-18T09:03:36;100545.16;;;9.92;100.00
16690;BME280;8458;52.220;9.884;2023-02-18T09:06:03;100555.72;;;9.95;100.00
16690;BME280;8458;52.220;9.884;2023-02-18T09:08:30;100562.06;;;9.95;100.00
16690;BME280;8458;52.220;9.884;2023-02-18T09:10:58;100559.03;;;9.97;100.00
16690;BME280;8458;52.220;9.884;2023-02-18T09:13:25;100550.75;;;10.02;100.00
16690;BME280;8458;52.220;9.884;2023-02-18T09:15:55;100548.59;;;10.04;100.00
16690;BME280;8458;52.220;9.884;2023-02-18T09:18:22;100540.00;;;10.05;100.00
16690;BME280;8458;52.220;9.884;2023-02-18T09:20:50;100532.00;;;10.09;100.00
16690;BME280;8458;52.220;9.884;2023-02-18T09:23:17;100535.59;;;10.10;100.00
16690;BME280;8458;52.220;9.884;2023-02-18T09:25:45;100528.69;;;10.12;100.00
16690;BME280;8458;52.220;9.884;2023-02-18T09:28:11;100529.84;;;10.16;100.00
16690;BME280;8458;52.220;9.884;2023-02-18T09:30:38;100518.75;;;10.16;100.00
16690;BME280;8458;52.220;9.884;2023-02-18T09:33:05;100510.47;;;10.21;100.00
16690;BME280;8458;52.220;9.884;2023-02-18T09:35:31;100526.03;;;10.28;100.00
16690;BME280;8458;52.220;9.884;2023-02-18T09:37:59;100517.97;;;10.26;100.00
16690;BME280;8458;52.220;9.884;2023-02-18T09:40:29;100519.94;;;10.31;100.00
16690;BME280;8458;52.220;9.884;2023-02-18T09:42:58;100528.00;;;10.32;100.00
16690;BME280;8458;52.220;9.884;2023-02-18T09:45:26;100525.00;;;10.34;100.00
16690;BME280;8458;52.220;9.884;2023-02-18T09:47:53;100515.00;;;10.33;100.00
16690;BME280;8458;52.220;9.884;2023-02-18T09:50:21;100534.91;;;10.30;100.00
16690;BME280;8458;52.220;9.884;2023-02-18T09:52:49;100524.16;;;10.33;100.00
16690;BME280;8458;52.220;9.884;2023-02-18T09:55:20;100525.00;;;10.34;100.00
16690;BME280;8458;52.220;9.884;2023-02-18T09:57:49;100527.75;;;10.34;100.00
16690;BME280;8458;52.220;9.884;2023-02-18T10:00:19;100509.69;;;10.31;100.00
16690;BME280;8458;52.220;9.884;2023-02-18T10:02:53;100511.13;;;10.34;100.00
16690;BME280;8458;52.220;9.884;2023-02-18T10:05:21;100509.19;;;10.34;100.00
16690;BME280;8458;52.220;9.884;2023-02-18T10:07:50;100507.84;;;10.37;100.00
16690;BME280;8458;52.220;9.884;2023-02-18T10:10:30;100492.88;;;10.38;100.00
16690;BME280;8458;52.220;9.884;2023-02-18T10:13:00;100493.69;;;10.38;100.00
16690;BME280;8458;52.220;9.884;2023-02-18T10:15:28;100493.16;;;10.42;100.00
16690;BME280;8458;52.220;9.884;2023-02-18T10:17:56;100499.00;;;10.45;100.00
16690;BME280;8458;52.220;9.884;2023-02-18T10:20:25;100503.72;;;10.45;100.00
16690;BME280;8458;52.220;9.884;2023-02-18T10:22:54;100497.91;;;10.46;100.00
16690;BME280;8458;52.220;9.884;2023-02-18T10:25:24;100490.41;;;10.47;100.00
16690;BME280;8458;52.220;9.884;2023-02-18T10:27:52;100488.50;;;10.52;100.00
16690;BME280;8458;52.220;9.884;2023-02-18T10:30:22;100482.44;;;10.55;100.00
16690;BME280;8458;52.220;9.884;2023-02-18T10:32:54;100491.03;;;10.59;100.00
16690;BME280;8458;52.220;9.884;2023-02-18T10:35:24;100500.19;;;10.59;100.00
16690;BME280;8458;52.220;9.884;2023-02-18T10:38:03;100493.53;;;10.55;100.00
16690;BME280;8458;52.220;9.884;2023-02-18T10:40:46;100488.53;;;10.57;100.00
16690;BME280;8458;52.220;9.884;2023-02-18T10:43:22;100500.19;;;10.59;100.00
16690;BME280;8458;52.220;9.884;2023-02-18T10:45:55;100501.03;;;10.60;100.00
16690;BME280;8458;52.220;9.884;2023-02-18T10:48:43;100499.06;;;10.55;100.00
16690;BME280;8458;52.220;9.884;2023-02-18T10:51:16;100491.84;;;10.54;100.00
16690;BME280;8458;52.220;9.884;2023-02-18T10:53:45;100496.22;;;10.45;100.00
16690;BME280;8458;52.220;9.884;2023-02-18T10:56:35;100510.06;;;10.40;100.00
16690;BME280;8458;52.220;9.884;2023-02-18T10:59:09;100495.91;;;10.36;100.00
16690;BME280;8458;52.220;9.884;2023-02-18T11:01:36;100489.19;;;10.32;100.00
16690;BME280;8458;52.220;9.884;2023-02-18T11:04:07;100490.28;;;10.26;100.00
16690;BME280;8458;52.220;9.884;2023-02-18T11:06:39;100477.28;;;10.32;100.00
16690;BME280;8458;52.220;9.884;2023-02-18T11:09:10;100469.81;;;10.32;100.00
16690;BME280;8458;52.220;9.884;2023-02-18T11:11:51;100480.34;;;10.30;100.00
16690;BME280;8458;52.220;9.884;2023-02-18T11:14:38;100490.56;;;10.30;100.00
16690;BME280;8458;52.220;9.884;2023-02-18T11:17:16;100486.94;;;10.24;100.00
16690;BME280;8458;52.220;9.884;2023-02-18T11:19:51;100481.41;;;10.24;100.00
16690;BME280;8458;52.220;9.884;2023-02-18T11:22:20;100477.22;;;10.21;100.00
16690;BME280;8458;52.220;9.884;2023-02-18T11:24:47;100472.50;;;10.22;100.00
16690;BME280;8458;52.220;9.884;2023-02-18T11:27:24;100466.97;;;10.22;100.00
16690;BME280;8458;52.220;9.884;2023-02-18T11:29:53;100471.13;;;10.25;100.00
16690;BME280;8458;52.220;9.884;2023-02-18T11:32:21;100458.16;;;10.30;100.00
16690;BME280;8458;52.220;9.884;2023-02-18T11:34:51;100471.75;;;10.32;100.00
16690;BME280;8458;52.220;9.884;2023-02-18T11:37:19;100462.84;;;10.30;100.00
16690;BME280;8458;52.220;9.884;2023-02-18T11:39:48;100468.38;;;10.25;100.00
16690;BME280;8458;52.220;9.884;2023-02-18T11:42:18;100473.09;;;10.24;100.00
16690;BME280;8458;52.220;9.884;2023-02-18T11:44:51;100472.22;;;10.18;100.00
16690;BME280;8458;52.220;9.884;2023-02-18T11:47:24;100474.97;;;10.13;100.00
16690;BME280;8458;52.220;9.884;2023-02-18T11:50:09;100486.03;;;10.13;100.00
16690;BME280;8458;52.220;9.884;2023-02-18T11:52:41;100474.44;;;10.16;100.00
16690;BME280;8458;52.220;9.884;2023-02-18T11:55:15;100479.66;;;10.13;100.00
16690;BME280;8458;52.220;9.884;2023-02-18T11:57:44;100473.28;;;10.12;100.00
16690;BME280;8458;52.220;9.884;2023-02-18T12:00:20;100471.06;;;10.14;100.00
16690;BME280;8458;52.220;9.884;2023-02-18T12:02:49;100476.31;;;10.11;100.00
16690;BME280;8458;52.220;9.884;2023-02-18T12:05:19;100473.25;;;10.07;100.00
16690;BME280;8458;52.220;9.884;2023-02-18T12:07:49;100476.56;;;10.04;100.00
16690;BME280;8458;52.220;9.884;2023-02-18T12:10:21;100462.19;;;10.07;100.00
16690;BME280;8458;52.220;9.884;2023-02-18T12:12:54;100469.34;;;10.03;100.00
16690;BME280;8458;52.220;9.884;2023-02-18T12:15:31;100464.34;;;10.05;100.00
16690;BME280;8458;52.220;9.884;2023-02-18T12:20:55;100461.03;;;10.03;100.00
16690;BME280;8458;52.220;9.884;2023-02-18T12:23:33;100456.56;;;10.02;100.00
16690;BME280;8458;52.220;9.884;2023-02-18T12:26:11;100464.88;;;10.02;100.00
16690;BME280;8458;52.220;9.884;2023-02-18T12:28:54;100458.50;;;9.96;100.00
16690;BME280;8458;52.220;9.884;2023-02-18T12:31:47;100483.97;;;9.93;100.00
16690;BME280;8458;52.220;9.884;2023-02-18T12:34:28;100456.00;;;9.95;100.00
16690;BME280;8458;52.220;9.884;2023-02-18T12:37:05;100484.22;;;9.92;100.00
16690;BME280;8458;52.220;9.884;2023-02-18T12:39:50;100475.31;;;9.90;100.00
16690;BME280;8458;52.220;9.884;2023-02-18T12:42:28;100487.25;;;9.90;100.00
16690;BME280;8458;52.220;9.884;2023-02-18T12:45:07;100488.63;;;9.87;100.00
16690;BME280;8458;52.220;9.884;2023-02-18T12:47:51;100494.69;;;9.84;100.00
16690;BME280;8458;52.220;9.884;2023-02-18T12:50:43;100489.66;;;9.81;100.00
16690;BME280;8458;52.220;9.884;2023-02-18T12:53:22;100506.28;;;9.81;100.00
16690;BME280;8458;52.220;9.884;2023-02-18T12:56:02;100499.66;;;9.82;100.00
16690;BME280;8458;52.220;9.884;2023-02-18T12:58:40;100508.50;;;9.79;100.00
16690;BME280;8458;52.220;9.884;2023-02-18T13:01:22;100492.41;;;9.76;100.00
16690;BME280;8458;52.220;9.884;2023-02-18T13:04:04;100490.72;;;9.75;100.00
16690;BME280;8458;52.220;9.884;2023-02-18T13:09:51;100485.81;;;9.82;100.00
16690;BME280;8458;52.220;9.884;2023-02-18T13:12:24;100495.78;;;9.83;100.00
16690;BME280;8458;52.220;9.884;2023-02-18T13:14:58;100501.31;;;9.83;100.00
16690;BME280;8458;52.220;9.884;2023-02-18T13:17:28;100495.25;;;9.86;100.00
16690;BME280;8458;52.220;9.884;2023-02-18T13:20:02;100494.97;;;9.88;100.00
16690;BME280;8458;52.220;9.884;2023-02-18T13:22:30;100488.09;;;9.91;100.00